Weather History for University AP, Davis, CA, CA

Change the Weather History Date:

Sunday, April 20, 2014

  Actual Average (KSAC) Record (KSAC)
Temperature  
Mean Temperature 67 °F -  
Max Temperature 84 °F 72 °F 93 °F (2009)
Min Temperature 50 °F 47 °F 34 °F (2008)
Degree Days  
Heating Degree Days 0    
Cooling Degree Days 2    
Growing Degree Days 17 (Base 50)    
Moisture  
Dew Point 46 °F    
Average Humidity 60    
Maximum Humidity 100    
Minimum Humidity 16    
Precipitation  
Precipitation 0.00 in 0.03 in 0.74 in (2001)
Month to date precipitation 0.84  
Year to date precipitation 10.70  
Since 1 July precipitation 17.32  
Sea Level Pressure  
Sea Level Pressure 30.07 in    
Wind  
Wind Speed 4 mph (NW)    
Max Wind Speed 14 mph    
Max Gust Speed 20 mph    
Visibility 10 miles    
Events      
T = Trace of Precipitation, MM = Missing Value Source: NWS Daily Summary

Daily Weather History Graph

Daily Weather History Graph

Search for Another Location

Airport:

Trip Planner

Search our weather history database for the weather conditions in past years. The results will help you decide how hot, cold, wet, or windy it might be!

Date:

Astronomy

Apr. 20, 2014 Rise Set
Actual Time 6:23 AM PDT 7:48 PM PDT
Civil Twilight 5:56 AM PDT 8:16 PM PDT
Nautical Twilight 5:23 AM PDT 8:49 PM PDT
Astronomical Twilight 4:48 AM PDT 9:24 PM PDT
Moon 12:31 AM PDT (4/20) 10:51 AM PDT (4/20)
Length of Visible Light 14h 20m
Length of Day
13h 24m
Waning Gibbous, 67% of the Moon is Illuminated
Apr 20
Waning Gibbous
Apr 22
Last Quarter
Apr 28
New
May 6
First Quarter
May 14
Full

Hourly Weather History & Observations

Time (PDT) Temp. Dew Point Humidity Pressure Visibility Wind Dir Wind Speed Gust Speed Precip Events Conditions
12:15 AM 53.6 °F 51.8 °F 94% 30.08 in 10.0 mi Calm Calm - N/A   Clear
12:35 AM 53.6 °F 50.0 °F 88% 30.08 in 10.0 mi Calm Calm - N/A   Clear
12:55 AM 53.6 °F 51.8 °F 94% 30.09 in 10.0 mi Calm Calm - N/A   Clear
1:15 AM 51.8 °F 50.0 °F 94% 30.09 in 10.0 mi East 3.5 mph - N/A   Clear
1:35 AM 51.8 °F 50.0 °F 94% 30.09 in 10.0 mi Calm Calm - N/A   Clear
1:55 AM 51.8 °F 50.0 °F 94% 30.09 in 10.0 mi Calm Calm - N/A   Clear
2:15 AM 51.8 °F 50.0 °F 94% 30.10 in 10.0 mi Calm Calm - N/A   Clear
2:35 AM 53.6 °F 51.8 °F 94% 30.10 in 10.0 mi Calm Calm - N/A   Clear
2:55 AM 51.8 °F 50.0 °F 94% 30.10 in 10.0 mi Calm Calm - N/A   Clear
3:15 AM 50.0 °F 50.0 °F 100% 30.10 in 10.0 mi NW 3.5 mph - N/A   Clear
3:35 AM 50.0 °F 50.0 °F 100% 30.10 in 10.0 mi NNW 6.9 mph - N/A   Clear
3:55 AM 50.0 °F 50.0 °F 100% 30.10 in 10.0 mi NNW 5.8 mph - N/A   Clear
4:15 AM 50.0 °F 50.0 °F 100% 30.11 in 10.0 mi North 5.8 mph - N/A   Clear
4:35 AM 51.8 °F 50.0 °F 94% 30.10 in 10.0 mi NNW 4.6 mph - N/A   Clear
4:55 AM 51.8 °F 50.0 °F 94% 30.10 in 10.0 mi North 4.6 mph - N/A   Clear
5:15 AM 50.0 °F 50.0 °F 100% 30.10 in 10.0 mi NNW 4.6 mph - N/A   Clear
5:35 AM 51.8 °F 50.0 °F 94% 30.10 in 10.0 mi North 3.5 mph - N/A   Clear
5:55 AM 51.8 °F 50.0 °F 94% 30.11 in 10.0 mi Calm Calm - N/A   Clear
6:15 AM 50.0 °F 50.0 °F 100% 30.11 in 10.0 mi Calm Calm - N/A   Clear
6:35 AM 50.0 °F 50.0 °F 100% 30.11 in 10.0 mi NNW 3.5 mph - N/A   Clear
6:55 AM 50.0 °F 50.0 °F 100% 30.12 in 10.0 mi Calm Calm - N/A   Clear
7:15 AM 50.0 °F 50.0 °F 100% 30.12 in 10.0 mi Calm Calm - N/A   Clear
7:35 AM 51.8 °F 51.8 °F 100% 30.12 in 10.0 mi Calm Calm - N/A   Clear
7:55 AM 53.6 °F 53.6 °F 100% 30.13 in 10.0 mi Calm Calm - N/A   Clear
8:15 AM 55.4 °F 53.6 °F 94% 30.13 in 10.0 mi Calm Calm - N/A   Clear
8:35 AM 57.2 °F 53.6 °F 88% 30.13 in 10.0 mi WNW 4.6 mph - N/A   Clear
8:55 AM 59.0 °F 51.8 °F 77% 30.13 in 10.0 mi North 5.8 mph - N/A   Clear
9:15 AM 60.8 °F 53.6 °F 77% 30.13 in 10.0 mi NNW 4.6 mph - N/A   Clear
9:35 AM 64.4 °F 50.0 °F 59% 30.12 in 10.0 mi North 6.9 mph - N/A   Clear
10:15 AM 69.8 °F 42.8 °F 38% 30.12 in 10.0 mi North 12.7 mph 18.4 mph N/A   Clear
10:35 AM 71.6 °F 39.2 °F 31% 30.13 in 10.0 mi North 11.5 mph 18.4 mph N/A   Clear
10:55 AM 71.6 °F 41.0 °F 33% 30.13 in 10.0 mi North 11.5 mph 17.3 mph N/A   Clear
11:15 AM 71.6 °F 39.2 °F 31% 30.13 in 10.0 mi North 13.8 mph 18.4 mph N/A   Clear
11:35 AM 73.4 °F 37.4 °F 27% 30.12 in 10.0 mi NNW 9.2 mph 19.6 mph N/A   Clear
11:55 AM 75.2 °F 37.4 °F 25% 30.12 in 10.0 mi NW 9.2 mph 18.4 mph N/A   Clear
12:15 PM 75.2 °F 37.4 °F 25% 30.11 in 10.0 mi NNW 10.4 mph 16.1 mph N/A   Clear
12:35 PM 77.0 °F 41.0 °F 28% 30.10 in 10.0 mi North 12.7 mph - N/A   Clear
12:55 PM 77.0 °F 41.0 °F 28% 30.09 in 10.0 mi NNW 11.5 mph - N/A   Clear
1:15 PM 78.8 °F 41.0 °F 26% 30.09 in 10.0 mi North 11.5 mph - N/A   Clear
1:35 PM 77.0 °F 39.2 °F 26% 30.08 in 10.0 mi North 12.7 mph 16.1 mph N/A   Clear
1:55 PM 78.8 °F 39.2 °F 24% 30.08 in 10.0 mi North 11.5 mph 17.3 mph N/A   Clear
2:15 PM 80.6 °F 37.4 °F 21% 30.07 in 10.0 mi NNW 8.1 mph - N/A   Clear
2:35 PM 80.6 °F 39.2 °F 23% 30.07 in 10.0 mi NNW 9.2 mph - N/A   Clear
2:55 PM 80.6 °F 35.6 °F 20% 30.06 in 10.0 mi NNW 8.1 mph - N/A   Clear
3:15 PM 82.4 °F 33.8 °F 17% 30.05 in 10.0 mi NW 6.9 mph - N/A   Clear
3:35 PM 82.4 °F 32.0 °F 16% 30.05 in 10.0 mi NNW 6.9 mph - N/A   Clear
3:55 PM 82.4 °F 32.0 °F 16% 30.04 in 10.0 mi North 6.9 mph - N/A   Clear
4:15 PM 82.4 °F 35.6 °F 19% 30.03 in 10.0 mi NNW 8.1 mph - N/A   Clear
4:35 PM 82.4 °F 35.6 °F 19% 30.03 in 10.0 mi WNW 4.6 mph - N/A   Clear
4:55 PM 82.4 °F 37.4 °F 20% 30.03 in 10.0 mi SW 4.6 mph - N/A   Clear
5:15 PM 84.2 °F 37.4 °F 19% 30.02 in 10.0 mi NW 3.5 mph - N/A   Clear
5:35 PM 82.4 °F 37.4 °F 20% 30.02 in 10.0 mi SW 3.5 mph - N/A   Clear
5:55 PM 82.4 °F 37.4 °F 20% 30.01 in 10.0 mi Calm Calm - N/A   Clear
6:15 PM 80.6 °F 50.0 °F 34% 30.01 in 10.0 mi South 5.8 mph - N/A   Clear
6:35 PM 78.8 °F 51.8 °F 39% 30.00 in 10.0 mi South 11.5 mph - N/A   Clear
6:55 PM 77.0 °F 53.6 °F 44% 30.00 in 10.0 mi South 9.2 mph - N/A   Clear
7:15 PM 75.2 °F 51.8 °F 44% 30.00 in 10.0 mi South 9.2 mph - N/A   Clear
7:35 PM 71.6 °F 51.8 °F 50% 30.00 in 10.0 mi SSW 5.8 mph - N/A   Clear
7:55 PM 69.8 °F 50.0 °F 49% 30.00 in 10.0 mi South 4.6 mph - N/A   Clear
8:15 PM 66.2 °F 50.0 °F 56% 30.00 in 10.0 mi South 3.5 mph - N/A   Clear
8:35 PM 64.4 °F 50.0 °F 59% 30.01 in 10.0 mi South 4.6 mph - N/A   Clear
8:55 PM 64.4 °F 48.2 °F 56% 30.01 in 10.0 mi South 5.8 mph - N/A   Clear
9:15 PM 62.6 °F 48.2 °F 59% 30.01 in 10.0 mi South 4.6 mph - N/A   Clear
9:35 PM 62.6 °F 46.4 °F 55% 30.02 in 10.0 mi SSW 3.5 mph - N/A   Clear
9:55 PM 62.6 °F 46.4 °F 55% 30.02 in 10.0 mi SSW 5.8 mph - N/A   Clear
10:15 PM 60.8 °F 46.4 °F 59% 30.02 in 10.0 mi SSW 3.5 mph - N/A   Clear
10:35 PM 60.8 °F 46.4 °F 59% 30.02 in 10.0 mi SSW 4.6 mph - N/A   Clear
10:55 PM 59.0 °F 46.4 °F 63% 30.01 in 10.0 mi SSW 4.6 mph - N/A   Clear
11:15 PM 59.0 °F 46.4 °F 63% 30.01 in 10.0 mi SSW 3.5 mph - N/A   Clear
11:35 PM 57.2 °F 46.4 °F 67% 30.01 in 10.0 mi SSW 4.6 mph - N/A   Clear
11:55 PM 57.2 °F 44.6 °F 63% 30.01 in 10.0 mi Calm Calm - N/A   Clear